EW8889 Weather Reports


Display with metric or nautical units.
time (UTC)temp
F
wind
direction
speed
MPH
gust
MPH
rain 1hr
in
rain 24hr
in
rain mn
in
humidity
%
barometer
mb
20181212021131 32 300 0.0 0.0 0.00 0.02 0.00 94 1024.8
20181212011131 33 300 0.0 0.0 0.00 0.02 0.00 93 1024.7
20181212001127 34 300 0.0 0.0 0.00 0.02 0.00 93 1024.7
20181211231126 35 300 0.0 0.0 0.00 0.02 0.00 92 1024.8
20181211221130 37 300 0.0 0.0 0.00 0.02 0.02 92 1024.8
20181211211140 40 300 0.0 0.0 0.00 0.02 0.02 91 1024.8
20181211201127 40 300 0.0 0.0 0.01 0.02 0.02 91 1024.7
20181211191124 41 300 0.0 0.0 0.00 0.02 0.01 90 1024.7
20181211181121 41 300 0.0 0.0 0.00 0.02 0.01 90 1024.6
20181211171123 41 300 0.0 0.0 0.00 0.02 0.01 89 1024.2
20181211161122 42 300 0.0 2.0 0.00 0.02 0.01 86 1024.1
20181211151119 44 323 0.0 3.0 0.01 0.02 0.01 85 1024.2
20181211141118 44 279 0.0 0.0 0.00 0.01 0.00 83 1023.9
20181211131117 45 278 0.0 2.0 0.00 0.01 0.00 81 1024.2
20181211121116 45 300 0.0 6.0 0.00 0.01 0.00 80 1024.5
20181211111115 44 194 0.0 5.0 0.00 0.02 0.00 82 1024.7
20181211101115 40 229 0.0 3.0 0.00 0.02 0.00 90 1025.0
20181211091118 36 274 0.0 0.0 0.00 0.02 0.00 93 1024.7
20181211081113 35 273 0.0 0.0 0.00 0.03 0.00 92 1024.7
20181211071115 35 273 0.0 0.0 0.00 0.09 0.00 92 1024.2
20181211061111 35 273 0.0 0.0 0.00 0.11 0.00 92 1024.2
20181211051112 36 273 0.0 0.0 0.00 0.14 0.00 92 1024.3
20181211041106 36 273 0.0 0.0 0.00 0.17 0.00 92 1024.2
20181211031107 35 273 0.0 0.0 0.00 0.17 0.00 93 1024.3